Bob Sikes Airport Crestview US
ICAO: KCEW
IATA: CEW
Category: Medium
Scheduled Services: No

Elevation: 213 ft
TransAlt. 18000 ft.

Airport Communications:
EGLIN APP/DEP:124.05
ASOS:119.275
GAINESVILLE RDO:122
CTAF/UNICOM:122.95

KCEW Zoom In..

Runways:

(A) RW 17 length 8004 ft width 150 ft
ILS 111.90 / hdg 171

(B) RW 35 length 8004 ft width 150 ft
---- / hdg 351

Location; KCEW
Day. 23 / Time. 21.53 Zulu
* Altimeter: 30.10
* Temperature: 18° c. 64.4°f.
* Wind from: 340° Speed 09 kn.
Dewpoint: -01° c.
Visibility: 10 Statute Miles.
Clouds: Clear (automated report).

KCEW 232153Z AUTO 34009KT 10SM CLR 18/M01 A3010 RMK AO2 SLP189 T01831011


Wind From 340°
Speed 09 kn.

YouTube Music Video
 
jpsmedia.com for Web Design  worldairports.se 2018   terms of use